sensor_id;sensor_type;location;lat;lon;timestamp;pressure;altitude;pressure_sealevel;temperature;humidity
77351;BME280;66420;50.246;14.320;2023-04-24T00:01:39;98524.94;;;8.41;89.72
77351;BME280;66420;50.246;14.320;2023-04-24T00:04:24;98516.59;;;8.38;90.74
77351;BME280;66420;50.246;14.320;2023-04-24T00:07:11;98518.03;;;8.44;90.68
77351;BME280;66420;50.246;14.320;2023-04-24T00:09:57;98517.25;;;8.52;90.03
77351;BME280;66420;50.246;14.320;2023-04-24T00:12:42;98509.53;;;8.54;90.17
77351;BME280;66420;50.246;14.320;2023-04-24T00:15:26;98506.97;;;8.49;90.18
77351;BME280;66420;50.246;14.320;2023-04-24T00:18:11;98515.81;;;8.46;90.37
77351;BME280;66420;50.246;14.320;2023-04-24T00:20:56;98530.56;;;8.45;89.68
77351;BME280;66420;50.246;14.320;2023-04-24T00:23:41;98513.72;;;8.52;90.19
77351;BME280;66420;50.246;14.320;2023-04-24T00:26:26;98511.81;;;8.52;90.22
77351;BME280;66420;50.246;14.320;2023-04-24T00:29:11;98504.41;;;8.53;90.42
77351;BME280;66420;50.246;14.320;2023-04-24T00:31:56;98506.34;;;8.52;90.31
77351;BME280;66420;50.246;14.320;2023-04-24T00:34:41;98491.41;;;8.58;90.14
77351;BME280;66420;50.246;14.320;2023-04-24T00:37:26;98482.91;;;8.60;90.02
77351;BME280;66420;50.246;14.320;2023-04-24T00:40:11;98481.63;;;8.57;90.20
77351;BME280;66420;50.246;14.320;2023-04-24T00:42:56;98480.50;;;8.58;89.94
77351;BME280;66420;50.246;14.320;2023-04-24T00:45:41;98473.28;;;8.62;90.33
77351;BME280;66420;50.246;14.320;2023-04-24T00:48:26;98468.31;;;8.56;90.35
77351;BME280;66420;50.246;14.320;2023-04-24T00:51:11;98469.91;;;8.48;91.13
77351;BME280;66420;50.246;14.320;2023-04-24T00:53:56;98471.53;;;8.49;91.14
77351;BME280;66420;50.246;14.320;2023-04-24T00:56:42;98464.78;;;8.55;90.36
77351;BME280;66420;50.246;14.320;2023-04-24T00:59:27;98463.50;;;8.61;91.00
77351;BME280;66420;50.246;14.320;2023-04-24T01:02:12;98469.56;;;8.75;90.60
77351;BME280;66420;50.246;14.320;2023-04-24T01:04:57;98460.44;;;8.71;89.65
77351;BME280;66420;50.246;14.320;2023-04-24T01:07:44;98455.94;;;8.75;89.40
77351;BME280;66420;50.246;14.320;2023-04-24T01:10:31;98451.78;;;8.78;89.45
77351;BME280;66420;50.246;14.320;2023-04-24T01:13:18;98452.88;;;8.85;89.86
77351;BME280;66420;50.246;14.320;2023-04-24T01:16:03;98444.06;;;8.71;91.02
77351;BME280;66420;50.246;14.320;2023-04-24T01:18:48;98447.94;;;8.70;89.77
77351;BME280;66420;50.246;14.320;2023-04-24T01:21:36;98446.16;;;8.74;91.23
77351;BME280;66420;50.246;14.320;2023-04-24T01:24:21;98447.75;;;8.75;90.79
77351;BME280;66420;50.246;14.320;2023-04-24T01:27:06;98443.91;;;8.76;90.72
77351;BME280;66420;50.246;14.320;2023-04-24T01:29:50;98448.56;;;8.76;91.05
77351;BME280;66420;50.246;14.320;2023-04-24T01:32:36;98446.16;;;8.74;91.03
77351;BME280;66420;50.246;14.320;2023-04-24T01:35:21;98448.56;;;8.76;90.90
77351;BME280;66420;50.246;14.320;2023-04-24T01:38:06;98448.56;;;8.76;91.16
77351;BME280;66420;50.246;14.320;2023-04-24T01:40:51;98446.78;;;8.80;91.62
77351;BME280;66420;50.246;14.320;2023-04-24T01:43:37;98448.56;;;8.76;92.05
77351;BME280;66420;50.246;14.320;2023-04-24T01:46:21;98462.81;;;8.90;91.30
77351;BME280;66420;50.246;14.320;2023-04-24T01:49:07;98458.16;;;8.90;91.28
77351;BME280;66420;50.246;14.320;2023-04-24T01:51:52;98460.25;;;8.94;91.86
77351;BME280;66420;50.246;14.320;2023-04-24T01:54:37;98455.91;;;8.93;92.06
77351;BME280;66420;50.246;14.320;2023-04-24T01:57:22;98453.22;;;8.84;92.04
77351;BME280;66420;50.246;14.320;2023-04-24T02:00:07;98453.50;;;8.91;91.75
77351;BME280;66420;50.246;14.320;2023-04-24T02:02:51;98459.09;;;8.95;92.27
77351;BME280;66420;50.246;14.320;2023-04-24T02:05:36;98458.66;;;8.93;92.17
77351;BME280;66420;50.246;14.320;2023-04-24T02:08:21;98452.53;;;8.96;91.54
77351;BME280;66420;50.246;14.320;2023-04-24T02:11:06;98450.59;;;9.05;91.19
77351;BME280;66420;50.246;14.320;2023-04-24T02:13:51;98457.63;;;9.14;90.70
77351;BME280;66420;50.246;14.320;2023-04-24T02:16:36;98453.03;;;9.35;89.07
77351;BME280;66420;50.246;14.320;2023-04-24T02:19:20;98442.97;;;9.65;88.95
77351;BME280;66420;50.246;14.320;2023-04-24T02:22:05;98446.63;;;9.69;89.37
77351;BME280;66420;50.246;14.320;2023-04-24T02:24:49;98445.31;;;9.75;89.23
77351;BME280;66420;50.246;14.320;2023-04-24T02:27:34;98439.84;;;9.75;89.09
77351;BME280;66420;50.246;14.320;2023-04-24T02:30:18;98429.75;;;9.67;89.74
77351;BME280;66420;50.246;14.320;2023-04-24T02:33:04;98422.91;;;9.61;90.09
77351;BME280;66420;50.246;14.320;2023-04-24T02:35:49;98428.69;;;9.60;90.41
77351;BME280;66420;50.246;14.320;2023-04-24T02:38:34;98420.16;;;9.61;89.46
77351;BME280;66420;50.246;14.320;2023-04-24T02:41:19;98414.22;;;9.59;90.54
77351;BME280;66420;50.246;14.320;2023-04-24T02:44:04;98414.69;;;9.61;91.42
77351;BME280;66420;50.246;14.320;2023-04-24T02:46:49;98413.09;;;9.60;91.13
77351;BME280;66420;50.246;14.320;2023-04-24T02:49:34;98411.22;;;9.52;91.35
77351;BME280;66420;50.246;14.320;2023-04-24T02:52:19;98406.25;;;9.46;91.88
77351;BME280;66420;50.246;14.320;2023-04-24T02:55:04;98415.94;;;9.43;92.54
77351;BME280;66420;50.246;14.320;2023-04-24T02:57:49;98417.72;;;9.39;92.64
77351;BME280;66420;50.246;14.320;2023-04-24T03:00:34;98424.28;;;9.38;93.12
77351;BME280;66420;50.246;14.320;2023-04-24T03:03:18;98431.06;;;9.32;93.21
77351;BME280;66420;50.246;14.320;2023-04-24T03:06:03;98437.94;;;9.38;93.51
77351;BME280;66420;50.246;14.320;2023-04-24T03:08:50;98434.56;;;9.41;93.84
77351;BME280;66420;50.246;14.320;2023-04-24T03:11:35;98430.97;;;9.49;93.10
77351;BME280;66420;50.246;14.320;2023-04-24T03:14:19;98427.59;;;9.52;92.28
77351;BME280;66420;50.246;14.320;2023-04-24T03:17:04;98430.78;;;9.54;92.59
77351;BME280;66420;50.246;14.320;2023-04-24T03:19:49;98442.66;;;9.58;92.42
77351;BME280;66420;50.246;14.320;2023-04-24T03:22:34;98429.47;;;9.60;92.38
77351;BME280;66420;50.246;14.320;2023-04-24T03:25:19;98435.09;;;9.64;91.60
77351;BME280;66420;50.246;14.320;2023-04-24T03:28:04;98434.75;;;9.65;92.42
77351;BME280;66420;50.246;14.320;2023-04-24T03:30:49;98443.31;;;9.55;93.42
77351;BME280;66420;50.246;14.320;2023-04-24T03:33:35;98430.47;;;9.56;92.22
77351;BME280;66420;50.246;14.320;2023-04-24T03:36:20;98431.91;;;9.62;91.84
77351;BME280;66420;50.246;14.320;2023-04-24T03:39:05;98436.06;;;9.59;93.62
77351;BME280;66420;50.246;14.320;2023-04-24T03:41:50;98436.38;;;9.66;92.13
77351;BME280;66420;50.246;14.320;2023-04-24T03:44:35;98436.81;;;9.68;93.12
77351;BME280;66420;50.246;14.320;2023-04-24T03:47:20;98441.84;;;9.66;92.37
77351;BME280;66420;50.246;14.320;2023-04-24T03:50:05;98439.09;;;9.66;92.02
77351;BME280;66420;50.246;14.320;2023-04-24T03:52:50;98442.16;;;9.65;93.23
77351;BME280;66420;50.246;14.320;2023-04-24T03:55:35;98444.56;;;9.66;92.34
77351;BME280;66420;50.246;14.320;2023-04-24T03:58:20;98440.91;;;9.62;93.20
77351;BME280;66420;50.246;14.320;2023-04-24T04:01:05;98445.75;;;9.57;93.51
77351;BME280;66420;50.246;14.320;2023-04-24T04:03:50;98437.72;;;9.52;93.70
77351;BME280;66420;50.246;14.320;2023-04-24T04:06:35;98441.72;;;9.54;93.75
77351;BME280;66420;50.246;14.320;2023-04-24T04:09:20;98439.13;;;9.58;92.86
77351;BME280;66420;50.246;14.320;2023-04-24T04:12:05;98434.47;;;9.58;93.11
77351;BME280;66420;50.246;14.320;2023-04-24T04:14:49;98431.53;;;9.63;93.98
77351;BME280;66420;50.246;14.320;2023-04-24T04:17:34;98444.25;;;9.59;94.36
77351;BME280;66420;50.246;14.320;2023-04-24T04:20:19;98438.16;;;9.62;93.85
77351;BME280;66420;50.246;14.320;2023-04-24T04:23:04;98447.13;;;9.63;92.73
77351;BME280;66420;50.246;14.320;2023-04-24T04:25:49;98446.06;;;9.55;93.33
77351;BME280;66420;50.246;14.320;2023-04-24T04:28:34;98445.44;;;9.50;93.48
77351;BME280;66420;50.246;14.320;2023-04-24T04:31:20;98451.03;;;9.53;94.13
77351;BME280;66420;50.246;14.320;2023-04-24T04:34:05;98455.50;;;9.58;93.22
77351;BME280;66420;50.246;14.320;2023-04-24T04:36:50;98454.38;;;9.59;94.94
77351;BME280;66420;50.246;14.320;2023-04-24T04:39:34;98459.53;;;9.60;93.79
77351;BME280;66420;50.246;14.320;2023-04-24T04:42:19;98461.59;;;9.63;94.36
77351;BME280;66420;50.246;14.320;2023-04-24T04:45:05;98460.78;;;9.63;94.33
77351;BME280;66420;50.246;14.320;2023-04-24T04:47:50;98464.69;;;9.62;94.26
77351;BME280;66420;50.246;14.320;2023-04-24T04:50:35;98467.06;;;9.63;94.29
77351;BME280;66420;50.246;14.320;2023-04-24T04:53:20;98470.78;;;9.59;94.09
77351;BME280;66420;50.246;14.320;2023-04-24T04:56:05;98472.69;;;9.58;94.01
77351;BME280;66420;50.246;14.320;2023-04-24T04:58:49;98483.31;;;9.60;93.59
77351;BME280;66420;50.246;14.320;2023-04-24T05:01:34;98480.59;;;9.60;93.75
77351;BME280;66420;50.246;14.320;2023-04-24T05:04:19;98487.34;;;9.62;94.26
77351;BME280;66420;50.246;14.320;2023-04-24T05:07:04;98484.91;;;9.61;94.67
77351;BME280;66420;50.246;14.320;2023-04-24T05:09:49;98492.44;;;9.64;94.07
77351;BME280;66420;50.246;14.320;2023-04-24T05:12:33;98496.94;;;9.68;94.08
77351;BME280;66420;50.246;14.320;2023-04-24T05:15:17;98502.22;;;9.73;94.94
77351;BME280;66420;50.246;14.320;2023-04-24T05:18:02;98505.09;;;9.77;94.25
77351;BME280;66420;50.246;14.320;2023-04-24T05:20:47;98500.72;;;9.85;93.94
77351;BME280;66420;50.246;14.320;2023-04-24T05:23:32;98504.34;;;9.97;93.02
77351;BME280;66420;50.246;14.320;2023-04-24T05:26:17;98507.53;;;9.99;93.64
77351;BME280;66420;50.246;14.320;2023-04-24T05:29:02;98500.00;;;9.96;93.72
77351;BME280;66420;50.246;14.320;2023-04-24T05:31:46;98497.56;;;10.03;93.57
77351;BME280;66420;50.246;14.320;2023-04-24T05:34:32;98504.09;;;10.11;92.89
77351;BME280;66420;50.246;14.320;2023-04-24T05:37:17;98494.22;;;10.27;93.38
77351;BME280;66420;50.246;14.320;2023-04-24T05:40:02;98490.03;;;10.30;93.48
77351;BME280;66420;50.246;14.320;2023-04-24T05:42:48;98499.97;;;10.34;93.71
77351;BME280;66420;50.246;14.320;2023-04-24T05:45:33;98501.38;;;10.40;93.88
77351;BME280;66420;50.246;14.320;2023-04-24T05:48:20;98516.00;;;10.44;92.67
77351;BME280;66420;50.246;14.320;2023-04-24T05:51:06;98514.19;;;10.48;92.33
77351;BME280;66420;50.246;14.320;2023-04-24T05:53:51;98506.91;;;10.52;92.42
77351;BME280;66420;50.246;14.320;2023-04-24T05:56:38;98510.56;;;10.56;91.66
77351;BME280;66420;50.246;14.320;2023-04-24T05:59:22;98509.06;;;10.68;92.61
77351;BME280;66420;50.246;14.320;2023-04-24T06:02:07;98514.72;;;10.62;92.00
77351;BME280;66420;50.246;14.320;2023-04-24T06:04:52;98514.44;;;10.55;91.76
77351;BME280;66420;50.246;14.320;2023-04-24T06:07:37;98519.09;;;10.55;92.51
77351;BME280;66420;50.246;14.320;2023-04-24T06:10:22;98523.78;;;10.54;92.82
77351;BME280;66420;50.246;14.320;2023-04-24T06:13:07;98533.59;;;10.55;92.58
77351;BME280;66420;50.246;14.320;2023-04-24T06:15:52;98525.25;;;10.52;92.60
77351;BME280;66420;50.246;14.320;2023-04-24T06:18:37;98533.78;;;10.50;92.63
77351;BME280;66420;50.246;14.320;2023-04-24T06:21:22;98536.81;;;10.57;92.68
77351;BME280;66420;50.246;14.320;2023-04-24T06:24:07;98545.94;;;10.61;91.31
77351;BME280;66420;50.246;14.320;2023-04-24T06:26:52;98550.09;;;10.68;92.12
77351;BME280;66420;50.246;14.320;2023-04-24T06:29:36;98551.16;;;10.75;91.60
77351;BME280;66420;50.246;14.320;2023-04-24T06:32:23;98554.09;;;10.70;91.32
77351;BME280;66420;50.246;14.320;2023-04-24T06:35:08;98547.63;;;10.75;91.71
77351;BME280;66420;50.246;14.320;2023-04-24T06:37:53;98554.22;;;10.74;91.56
77351;BME280;66420;50.246;14.320;2023-04-24T06:40:40;98563.16;;;10.83;90.83
77351;BME280;66420;50.246;14.320;2023-04-24T06:43:25;98558.69;;;10.78;90.43
77351;BME280;66420;50.246;14.320;2023-04-24T06:46:10;98561.41;;;10.78;90.79
77351;BME280;66420;50.246;14.320;2023-04-24T06:48:56;98565.44;;;10.81;90.58
77351;BME280;66420;50.246;14.320;2023-04-24T06:51:41;98569.44;;;10.83;91.10
77351;BME280;66420;50.246;14.320;2023-04-24T06:54:26;98569.91;;;10.85;91.47
77351;BME280;66420;50.246;14.320;2023-04-24T06:57:10;98568.91;;;10.90;91.56
77351;BME280;66420;50.246;14.320;2023-04-24T06:59:55;98558.88;;;10.94;91.16
77351;BME280;66420;50.246;14.320;2023-04-24T07:02:40;98566.53;;;11.00;92.05
77351;BME280;66420;50.246;14.320;2023-04-24T07:05:25;98570.38;;;11.08;92.63
77351;BME280;66420;50.246;14.320;2023-04-24T07:08:10;98572.34;;;11.20;92.25
77351;BME280;66420;50.246;14.320;2023-04-24T07:10:56;98568.25;;;11.26;90.71
77351;BME280;66420;50.246;14.320;2023-04-24T07:13:41;98570.19;;;11.25;89.91
77351;BME280;66420;50.246;14.320;2023-04-24T07:16:26;98573.19;;;11.32;91.02
77351;BME280;66420;50.246;14.320;2023-04-24T07:19:12;98571.25;;;11.33;89.34
77351;BME280;66420;50.246;14.320;2023-04-24T07:21:57;98568.16;;;11.34;89.87
77351;BME280;66420;50.246;14.320;2023-04-24T07:24:44;98565.63;;;11.29;88.91
77351;BME280;66420;50.246;14.320;2023-04-24T07:27:28;98563.16;;;11.36;89.54
77351;BME280;66420;50.246;14.320;2023-04-24T07:30:13;98567.38;;;11.34;89.17
77351;BME280;66420;50.246;14.320;2023-04-24T07:32:58;98566.25;;;11.35;88.67
77351;BME280;66420;50.246;14.320;2023-04-24T07:35:42;98569.66;;;11.32;88.25
77351;BME280;66420;50.246;14.320;2023-04-24T07:38:29;98575.91;;;11.32;88.70
77351;BME280;66420;50.246;14.320;2023-04-24T07:41:14;98570.44;;;11.32;89.84
77351;BME280;66420;50.246;14.320;2023-04-24T07:43:59;98579.34;;;11.29;88.64
77351;BME280;66420;50.246;14.320;2023-04-24T07:46:44;98580.16;;;11.30;88.60
77351;BME280;66420;50.246;14.320;2023-04-24T07:49:29;98588.47;;;11.33;88.33
77351;BME280;66420;50.246;14.320;2023-04-24T07:52:14;98592.59;;;11.27;88.31
77351;BME280;66420;50.246;14.320;2023-04-24T07:54:58;98594.63;;;11.30;89.67
77351;BME280;66420;50.246;14.320;2023-04-24T07:57:44;98594.63;;;11.30;88.63
77351;BME280;66420;50.246;14.320;2023-04-24T08:00:29;98590.56;;;11.36;88.98
77351;BME280;66420;50.246;14.320;2023-04-24T08:03:14;98585.28;;;11.31;89.44
77351;BME280;66420;50.246;14.320;2023-04-24T08:05:59;98584.94;;;11.33;89.32
77351;BME280;66420;50.246;14.320;2023-04-24T08:08:44;98590.09;;;11.34;90.03
77351;BME280;66420;50.246;14.320;2023-04-24T08:11:28;98586.22;;;11.35;90.25
77351;BME280;66420;50.246;14.320;2023-04-24T08:14:13;98592.59;;;11.27;88.80
77351;BME280;66420;50.246;14.320;2023-04-24T08:16:59;98581.28;;;11.29;88.62
77351;BME280;66420;50.246;14.320;2023-04-24T08:19:45;98578.72;;;11.44;89.33
77351;BME280;66420;50.246;14.320;2023-04-24T08:22:32;98577.78;;;11.40;88.75
77351;BME280;66420;50.246;14.320;2023-04-24T08:25:17;98580.47;;;11.28;87.25
77351;BME280;66420;50.246;14.320;2023-04-24T08:28:05;98574.56;;;11.38;87.67
77351;BME280;66420;50.246;14.320;2023-04-24T08:30:50;98576.50;;;11.38;88.22
77351;BME280;66420;50.246;14.320;2023-04-24T08:33:39;98579.53;;;11.45;87.69
77351;BME280;66420;50.246;14.320;2023-04-24T08:36:25;98584.63;;;11.46;87.99
77351;BME280;66420;50.246;14.320;2023-04-24T08:39:10;98590.59;;;11.48;86.79
77351;BME280;66420;50.246;14.320;2023-04-24T08:41:55;98586.72;;;11.49;87.33
77351;BME280;66420;50.246;14.320;2023-04-24T08:44:40;98594.03;;;11.45;88.21
77351;BME280;66420;50.246;14.320;2023-04-24T08:47:25;98594.03;;;11.45;89.04
77351;BME280;66420;50.246;14.320;2023-04-24T08:50:12;98600.53;;;11.53;89.14
77351;BME280;66420;50.246;14.320;2023-04-24T08:52:57;98599.25;;;11.50;89.26
77351;BME280;66420;50.246;14.320;2023-04-24T08:55:43;98600.63;;;11.44;88.44
77351;BME280;66420;50.246;14.320;2023-04-24T08:58:31;98606.09;;;11.44;89.56
77351;BME280;66420;50.246;14.320;2023-04-24T09:01:16;98597.41;;;11.42;89.20
77351;BME280;66420;50.246;14.320;2023-04-24T09:04:03;98596.63;;;11.42;89.85
77351;BME280;66420;50.246;14.320;2023-04-24T09:06:48;98601.88;;;11.47;89.68
77351;BME280;66420;50.246;14.320;2023-04-24T09:09:34;98600.50;;;11.41;86.94
77351;BME280;66420;50.246;14.320;2023-04-24T09:12:20;98600.75;;;11.48;88.68
77351;BME280;66420;50.246;14.320;2023-04-24T09:15:07;98603.16;;;11.49;89.18
77351;BME280;66420;50.246;14.320;2023-04-24T09:17:52;98601.78;;;11.55;88.91
77351;BME280;66420;50.246;14.320;2023-04-24T09:21:17;98601.78;;;11.55;87.17
77351;BME280;66420;50.246;14.320;2023-04-24T09:24:05;98595.88;;;11.66;88.06
77351;BME280;66420;50.246;14.320;2023-04-24T09:26:56;98604.97;;;11.78;87.44
77351;BME280;66420;50.246;14.320;2023-04-24T09:29:56;98600.09;;;11.96;88.46
77351;BME280;66420;50.246;14.320;2023-04-24T09:32:41;98598.28;;;12.00;86.19
77351;BME280;66420;50.246;14.320;2023-04-24T09:35:26;98598.75;;;12.14;87.07
77351;BME280;66420;50.246;14.320;2023-04-24T09:38:11;98588.34;;;12.20;86.03
77351;BME280;66420;50.246;14.320;2023-04-24T09:40:59;98589.16;;;12.32;84.43
77351;BME280;66420;50.246;14.320;2023-04-24T09:43:44;98587.41;;;12.52;84.33
77351;BME280;66420;50.246;14.320;2023-04-24T09:46:30;98591.38;;;12.67;83.90
77351;BME280;66420;50.246;14.320;2023-04-24T09:49:29;98578.34;;;12.76;83.04
77351;BME280;66420;50.246;14.320;2023-04-24T09:52:15;98580.25;;;12.87;82.63
77351;BME280;66420;50.246;14.320;2023-04-24T09:54:59;98575.16;;;13.14;83.00
77351;BME280;66420;50.246;14.320;2023-04-24T09:57:51;98573.81;;;13.36;81.80
77351;BME280;66420;50.246;14.320;2023-04-24T10:00:36;98574.28;;;13.53;81.53
77351;BME280;66420;50.246;14.320;2023-04-24T10:03:25;98566.28;;;13.48;78.97
77351;BME280;66420;50.246;14.320;2023-04-24T10:06:13;98566.69;;;13.62;79.13
77351;BME280;66420;50.246;14.320;2023-04-24T10:08:58;98569.59;;;13.54;78.91
77351;BME280;66420;50.246;14.320;2023-04-24T10:11:45;98548.88;;;13.72;77.62
77351;BME280;66420;50.246;14.320;2023-04-24T10:14:30;98560.06;;;13.79;74.86
77351;BME280;66420;50.246;14.320;2023-04-24T10:17:15;98558.91;;;13.96;76.93
77351;BME280;66420;50.246;14.320;2023-04-24T10:20:00;98558.47;;;14.09;74.42
77351;BME280;66420;50.246;14.320;2023-04-24T10:22:50;98560.50;;;13.97;71.42
77351;BME280;66420;50.246;14.320;2023-04-24T10:25:36;98555.63;;;14.06;71.54
77351;BME280;66420;50.246;14.320;2023-04-24T10:28:22;98551.34;;;14.08;69.40
77351;BME280;66420;50.246;14.320;2023-04-24T10:31:09;98559.19;;;14.06;70.37
77351;BME280;66420;50.246;14.320;2023-04-24T10:33:54;98557.66;;;14.09;70.88
77351;BME280;66420;50.246;14.320;2023-04-24T10:36:42;98558.47;;;14.09;68.41
77351;BME280;66420;50.246;14.320;2023-04-24T10:39:28;98564.50;;;14.15;70.72
77351;BME280;66420;50.246;14.320;2023-04-24T10:42:16;98559.25;;;14.10;71.69
77351;BME280;66420;50.246;14.320;2023-04-24T10:45:15;98553.09;;;14.16;70.55
77351;BME280;66420;50.246;14.320;2023-04-24T10:48:07;98552.13;;;14.40;71.36
77351;BME280;66420;50.246;14.320;2023-04-24T10:50:55;98549.56;;;14.32;69.98
77351;BME280;66420;50.246;14.320;2023-04-24T10:53:40;98555.34;;;14.42;72.19
77351;BME280;66420;50.246;14.320;2023-04-24T10:56:25;98542.66;;;14.38;69.85
77351;BME280;66420;50.246;14.320;2023-04-24T10:59:10;98538.53;;;14.32;69.63
77351;BME280;66420;50.246;14.320;2023-04-24T11:01:55;98544.72;;;14.60;67.52
77351;BME280;66420;50.246;14.320;2023-04-24T11:04:40;98546.38;;;14.80;66.97
77351;BME280;66420;50.246;14.320;2023-04-24T11:07:27;98540.53;;;14.85;63.89
77351;BME280;66420;50.246;14.320;2023-04-24T11:10:25;98541.06;;;15.10;65.05
77351;BME280;66420;50.246;14.320;2023-04-24T11:13:10;98532.28;;;15.43;66.44
77351;BME280;66420;50.246;14.320;2023-04-24T11:16:35;98534.06;;;15.55;63.70
77351;BME280;66420;50.246;14.320;2023-04-24T11:19:26;98541.69;;;15.42;62.74
77351;BME280;66420;50.246;14.320;2023-04-24T11:22:14;98535.34;;;15.19;63.74
77351;BME280;66420;50.246;14.320;2023-04-24T11:25:02;98538.94;;;15.23;62.57
77351;BME280;66420;50.246;14.320;2023-04-24T11:27:47;98535.44;;;15.45;63.53
77351;BME280;66420;50.246;14.320;2023-04-24T11:30:33;98539.69;;;15.58;61.85
77351;BME280;66420;50.246;14.320;2023-04-24T11:33:20;98536.47;;;15.56;61.76
77351;BME280;66420;50.246;14.320;2023-04-24T11:36:06;98546.75;;;15.40;63.14
77351;BME280;66420;50.246;14.320;2023-04-24T11:38:51;98540.56;;;15.24;61.99
77351;BME280;66420;50.246;14.320;2023-04-24T11:41:37;98539.06;;;15.07;63.04
77351;BME280;66420;50.246;14.320;2023-04-24T11:44:22;98541.56;;;14.96;63.52
77351;BME280;66420;50.246;14.320;2023-04-24T11:47:06;98543.03;;;15.09;65.24
77351;BME280;66420;50.246;14.320;2023-04-24T11:49:52;98531.84;;;15.22;61.77
77351;BME280;66420;50.246;14.320;2023-04-24T11:52:38;98530.31;;;15.63;64.54
77351;BME280;66420;50.246;14.320;2023-04-24T11:55:25;98540.25;;;15.67;62.60
77351;BME280;66420;50.246;14.320;2023-04-24T11:58:11;98539.00;;;15.65;64.37
77351;BME280;66420;50.246;14.320;2023-04-24T12:00:56;98531.03;;;15.60;64.09
77351;BME280;66420;50.246;14.320;2023-04-24T12:03:47;98532.28;;;15.43;62.63
77351;BME280;66420;50.246;14.320;2023-04-24T12:06:32;98532.91;;;15.36;64.02
77351;BME280;66420;50.246;14.320;2023-04-24T12:09:16;98534.31;;;15.27;62.17
77351;BME280;66420;50.246;14.320;2023-04-24T12:12:01;98537.09;;;15.07;62.08
77351;BME280;66420;50.246;14.320;2023-04-24T12:14:53;98535.22;;;15.12;62.51
77351;BME280;66420;50.246;14.320;2023-04-24T12:17:41;98542.03;;;14.98;62.91
77351;BME280;66420;50.246;14.320;2023-04-24T12:20:31;98540.13;;;15.02;64.58
77351;BME280;66420;50.246;14.320;2023-04-24T12:23:16;98533.97;;;15.09;64.18
77351;BME280;66420;50.246;14.320;2023-04-24T12:26:05;98532.44;;;15.12;63.52
77351;BME280;66420;50.246;14.320;2023-04-24T12:28:50;98532.72;;;15.26;61.92
77351;BME280;66420;50.246;14.320;2023-04-24T12:31:34;98544.53;;;15.26;63.05
77351;BME280;66420;50.246;14.320;2023-04-24T12:34:20;98534.59;;;15.22;62.76
77351;BME280;66420;50.246;14.320;2023-04-24T12:37:11;98534.63;;;15.02;62.59
77351;BME280;66420;50.246;14.320;2023-04-24T12:40:10;98540.22;;;15.06;62.29
77351;BME280;66420;50.246;14.320;2023-04-24T12:42:55;98537.09;;;15.07;62.68
77351;BME280;66420;50.246;14.320;2023-04-24T12:45:39;98538.09;;;14.99;60.97
77351;BME280;66420;50.246;14.320;2023-04-24T12:48:28;98525.03;;;14.96;59.91
77351;BME280;66420;50.246;14.320;2023-04-24T12:51:13;98530.50;;;14.93;61.13
77351;BME280;66420;50.246;14.320;2023-04-24T12:53:58;98526.66;;;14.97;61.43
77351;BME280;66420;50.246;14.320;2023-04-24T12:56:42;98528.66;;;15.00;61.99
77351;BME280;66420;50.246;14.320;2023-04-24T12:59:27;98526.31;;;15.22;61.96
77351;BME280;66420;50.246;14.320;2023-04-24T13:02:12;98520.47;;;15.23;61.04
77351;BME280;66420;50.246;14.320;2023-04-24T13:04:58;98521.56;;;15.19;60.05
77351;BME280;66420;50.246;14.320;2023-04-24T13:07:43;98522.00;;;15.21;60.90
77351;BME280;66420;50.246;14.320;2023-04-24T13:10:28;98515.00;;;15.27;60.90
77351;BME280;66420;50.246;14.320;2023-04-24T13:13:12;98509.50;;;15.27;59.97
77351;BME280;66420;50.246;14.320;2023-04-24T13:15:57;98509.03;;;15.21;61.29
77351;BME280;66420;50.246;14.320;2023-04-24T13:18:42;98495.59;;;15.20;63.41
77351;BME280;66420;50.246;14.320;2023-04-24T13:21:27;98505.75;;;15.16;61.40
77351;BME280;66420;50.246;14.320;2023-04-24T13:24:11;98503.09;;;15.42;62.62
77351;BME280;66420;50.246;14.320;2023-04-24T13:26:57;98491.84;;;15.73;58.85
77351;BME280;66420;50.246;14.320;2023-04-24T13:29:42;98498.59;;;15.99;56.70
77351;BME280;66420;50.246;14.320;2023-04-24T13:32:27;98491.69;;;15.85;50.63
77351;BME280;66420;50.246;14.320;2023-04-24T13:35:13;98492.78;;;15.81;51.61
77351;BME280;66420;50.246;14.320;2023-04-24T13:37:57;98496.97;;;15.71;52.38
77351;BME280;66420;50.246;14.320;2023-04-24T13:40:42;98494.06;;;15.45;51.80
77351;BME280;66420;50.246;14.320;2023-04-24T13:43:27;98500.50;;;15.30;51.58
77351;BME280;66420;50.246;14.320;2023-04-24T13:46:12;98502.13;;;15.12;52.85
77351;BME280;66420;50.246;14.320;2023-04-24T13:48:56;98502.88;;;14.89;52.92
77351;BME280;66420;50.246;14.320;2023-04-24T13:51:42;98501.84;;;14.78;52.40
77351;BME280;66420;50.246;14.320;2023-04-24T13:54:27;98498.16;;;14.71;52.18
77351;BME280;66420;50.246;14.320;2023-04-24T13:57:14;98496.91;;;14.68;52.54
77351;BME280;66420;50.246;14.320;2023-04-24T13:59:59;98493.88;;;14.73;50.96
77351;BME280;66420;50.246;14.320;2023-04-24T14:02:47;98490.97;;;14.85;51.38
77351;BME280;66420;50.246;14.320;2023-04-24T14:05:32;98515.03;;;14.69;50.60
77351;BME280;66420;50.246;14.320;2023-04-24T14:08:17;98512.41;;;14.57;49.47
77351;BME280;66420;50.246;14.320;2023-04-24T14:11:02;98512.41;;;14.57;50.18
77351;BME280;66420;50.246;14.320;2023-04-24T14:13:47;98510.16;;;14.43;50.28
77351;BME280;66420;50.246;14.320;2023-04-24T14:16:32;98507.25;;;14.20;48.86
77351;BME280;66420;50.246;14.320;2023-04-24T14:19:18;98523.66;;;14.17;50.51
77351;BME280;66420;50.246;14.320;2023-04-24T14:22:02;98509.81;;;14.13;51.57
77351;BME280;66420;50.246;14.320;2023-04-24T14:24:47;98509.00;;;14.13;52.00
77351;BME280;66420;50.246;14.320;2023-04-24T14:27:32;98510.06;;;14.24;52.04
77351;BME280;66420;50.246;14.320;2023-04-24T14:30:19;98497.31;;;14.51;51.43